Froeybanken — LJML — position and weather

sailwx.info

Track history (hours):
 
Tides and Currents Weather Stations Pressure Air Temp Water Temp Dewpoint Dewpoint Depression Visibility Wind Speed Wind Dir Waves Ship Positions

Froeybanken

Last reported at 2017-Apr-24 06:29 UTC. Time now 2017-Apr-26 00:15 UTC.
Position N 69°20' E 018°03'.

; draft 3.6 m.

Type: Fishing. MMSI: 257470500.

Date/timePositionNaut miles runAvg speedWind from/ knotsBaromVisibWave heightAir tempDewpointWater temp
2017-Apr-24 06:29N 69°20' E 018°03'4 8.3
2017-Apr-24 06:00N 69°17' E 017°58'4 8.8
2017-Apr-24 05:30N 69°12' E 018°00'4 7.5
2017-Apr-24 05:00N 69°10' E 017°53'4 8.4
2017-Apr-24 04:30N 69°08' E 017°42'4 8.5
2017-Apr-24 04:00N 69°06' E 017°31'7 8.3
2017-Apr-24 03:09N 69°01' E 017°17'1 8.3
2017-Apr-24 03:00N 69°00' E 017°15'4 8.7
2017-Apr-24 02:30N 68°57' E 017°07'7 9.1
2017-Apr-24 01:47N 68°51' E 016°56'3 9.2
2017-Apr-24 01:29N 68°49' E 016°52'4 9.2
2017-Apr-24 01:00N 68°45' E 016°47'75 8.2
2017-Apr-23 15:53N 68°03' E 013°59'  
Track history (hours):
 
Tides and Currents Weather Stations Pressure Air Temp Water Temp Dewpoint Dewpoint Depression Visibility Wind Speed Wind Dir Waves Ship Positions

Froeybanken

Last reported at 2017-Apr-24 06:29 UTC. Time now 2017-Apr-26 00:15 UTC.
Position N 69°20' E 018°03'.

; draft 3.6 m.

Type: Fishing. MMSI: 257470500.

Date/timePositionNaut miles runAvg speedWind from/ knotsBaromVisibWave heightAir tempDewpointWater temp
2017-Apr-24 06:29N 69°20' E 018°03'4 8.3
2017-Apr-24 06:00N 69°17' E 017°58'4 8.8
2017-Apr-24 05:30N 69°12' E 018°00'4 7.5
2017-Apr-24 05:00N 69°10' E 017°53'4 8.4
2017-Apr-24 04:30N 69°08' E 017°42'4 8.5
2017-Apr-24 04:00N 69°06' E 017°31'7 8.3
2017-Apr-24 03:09N 69°01' E 017°17'1 8.3
2017-Apr-24 03:00N 69°00' E 017°15'4 8.7
2017-Apr-24 02:30N 68°57' E 017°07'7 9.1
2017-Apr-24 01:47N 68°51' E 016°56'3 9.2
2017-Apr-24 01:29N 68°49' E 016°52'4 9.2
2017-Apr-24 01:00N 68°45' E 016°47'75 8.2
2017-Apr-23 15:53N 68°03' E 013°59'  

Dump ship's entire track history